createdAt,value
2022-08-29T00:00:47.801Z,72.16
2022-08-29T00:03:55.568Z,72.23
2022-08-29T00:07:01.711Z,72.16
2022-08-29T00:10:10.734Z,72.34
2022-08-29T00:13:17.531Z,72.70
2022-08-29T00:16:23.953Z,72.61
2022-08-29T00:19:30.813Z,72.69
2022-08-29T00:22:37.096Z,72.93
2022-08-29T00:25:43.334Z,72.84
2022-08-29T00:28:49.231Z,72.94
2022-08-29T00:31:53.644Z,72.87
2022-08-29T00:34:59.569Z,73.07
2022-08-29T00:38:05.457Z,72.97
2022-08-29T00:41:11.578Z,73.00
2022-08-29T00:44:18.090Z,73.06
2022-08-29T00:47:37.783Z,73.16
2022-08-29T00:50:48.596Z,73.18
2022-08-29T00:54:00.797Z,73.15
2022-08-29T00:57:07.894Z,73.02
2022-08-29T01:00:17.734Z,73.29
2022-08-29T01:03:24.382Z,73.31
2022-08-29T01:06:30.942Z,73.35
2022-08-29T01:09:39.538Z,73.51
2022-08-29T01:12:46.053Z,73.52
2022-08-29T01:15:52.907Z,73.50
2022-08-29T01:19:04.454Z,73.56
2022-08-29T01:22:22.362Z,73.53
2022-08-29T01:25:32.421Z,73.59
2022-08-29T01:28:42.526Z,73.79
2022-08-29T01:31:57.430Z,73.78
2022-08-29T01:35:02.744Z,73.79
2022-08-29T01:38:08.866Z,73.82
2022-08-29T01:41:18.141Z,73.91
2022-08-29T01:44:26.724Z,73.77
2022-08-29T01:47:35.658Z,73.70
2022-08-29T01:50:41.799Z,73.97
2022-08-29T01:53:48.270Z,73.90
2022-08-29T01:56:55.470Z,74.05
2022-08-29T02:00:03.008Z,74.20
2022-08-29T02:03:09.242Z,74.22
2022-08-29T02:06:15.405Z,74.42
2022-08-29T02:09:21.503Z,74.13
2022-08-29T02:12:27.723Z,74.27
2022-08-29T02:15:34.151Z,74.47
2022-08-29T02:18:40.712Z,74.38
2022-08-29T02:21:46.890Z,74.56
2022-08-29T02:24:53.105Z,74.69
2022-08-29T02:27:59.546Z,74.64
2022-08-29T02:31:06.595Z,74.94
2022-08-29T02:34:13.207Z,74.84
2022-08-29T02:37:19.681Z,74.83
2022-08-29T02:40:32.044Z,74.84
2022-08-29T02:43:38.402Z,74.87
2022-08-29T02:46:44.648Z,75.06
2022-08-29T02:49:50.792Z,74.91
2022-08-29T02:52:57.255Z,74.98
2022-08-29T02:56:03.516Z,75.06
2022-08-29T02:59:10.030Z,74.97
2022-08-29T03:02:16.334Z,75.03
2022-08-29T03:05:25.073Z,75.14
2022-08-29T03:08:31.741Z,75.13
2022-08-29T03:11:37.886Z,75.19
2022-08-29T03:14:44.117Z,75.11
2022-08-29T03:17:50.388Z,75.20
2022-08-29T03:20:56.594Z,75.20
2022-08-29T03:24:02.734Z,75.23
2022-08-29T03:27:09.376Z,75.30
2022-08-29T03:30:17.677Z,75.23
2022-08-29T03:33:23.818Z,75.21
2022-08-29T03:36:29.996Z,75.35
2022-08-29T03:39:38.215Z,75.44
2022-08-29T03:42:44.632Z,75.26
2022-08-29T03:45:51.005Z,75.29
2022-08-29T03:48:57.205Z,75.31
2022-08-29T03:52:04.009Z,75.31
2022-08-29T03:55:11.693Z,75.36
2022-08-29T03:58:17.735Z,75.34
2022-08-29T04:01:26.985Z,75.45
2022-08-29T04:04:50.487Z,75.35
2022-08-29T04:07:58.642Z,75.55
2022-08-29T04:11:09.815Z,75.44
2022-08-29T04:14:16.023Z,75.67
2022-08-29T04:17:22.183Z,75.76
2022-08-29T04:20:30.589Z,75.90
2022-08-29T04:23:38.844Z,75.81
2022-08-29T04:26:45.154Z,76.02
2022-08-29T04:29:51.251Z,76.04
2022-08-29T04:32:57.618Z,76.06
2022-08-29T04:36:06.658Z,76.09
2022-08-29T04:39:13.328Z,76.00
2022-08-29T04:42:20.418Z,75.99
2022-08-29T04:45:27.034Z,76.06
2022-08-29T04:48:33.262Z,76.13
2022-08-29T04:51:39.526Z,76.24
2022-08-29T04:54:45.614Z,76.20
2022-08-29T04:57:53.426Z,76.37
2022-08-29T05:00:59.885Z,76.38
2022-08-29T05:04:07.341Z,76.34
2022-08-29T05:07:15.514Z,76.45
2022-08-29T05:10:23.259Z,76.57
2022-08-29T05:13:29.636Z,76.68
2022-08-29T05:16:37.445Z,76.50
2022-08-29T05:19:45.057Z,76.49
2022-08-29T05:22:51.642Z,76.55
2022-08-29T05:26:00.694Z,76.84
2022-08-29T05:29:08.548Z,76.78
2022-08-29T05:32:17.638Z,76.59
2022-08-29T05:35:24.353Z,76.70
2022-08-29T05:38:30.570Z,76.86
2022-08-29T05:41:38.612Z,77.02
2022-08-29T05:44:45.086Z,77.20
2022-08-29T05:47:51.529Z,77.12
2022-08-29T05:50:57.929Z,77.06
2022-08-29T05:54:04.039Z,77.15
2022-08-29T05:57:14.186Z,77.19
2022-08-29T06:00:24.101Z,77.11
2022-08-29T06:03:30.654Z,77.20
2022-08-29T06:06:36.986Z,77.20
2022-08-29T06:09:44.571Z,77.26
2022-08-29T06:12:50.837Z,77.50
2022-08-29T06:15:57.514Z,77.50
2022-08-29T06:19:03.739Z,77.38
2022-08-29T06:22:11.754Z,77.40
2022-08-29T06:25:37.972Z,77.39
2022-08-29T06:28:46.494Z,77.33
2022-08-29T06:31:52.699Z,77.47
2022-08-29T06:34:59.014Z,77.46
2022-08-29T06:38:05.246Z,77.49
2022-08-29T06:41:14.451Z,77.53
2022-08-29T06:44:21.559Z,77.49
2022-08-29T06:47:27.678Z,77.47
2022-08-29T06:50:33.850Z,77.54
2022-08-29T06:53:41.395Z,77.73
2022-08-29T06:56:48.195Z,77.49
2022-08-29T06:59:54.601Z,77.48
2022-08-29T07:03:01.069Z,77.43
2022-08-29T07:06:07.558Z,77.48
2022-08-29T07:09:14.816Z,77.62
2022-08-29T07:12:21.041Z,77.83
2022-08-29T07:15:33.103Z,77.52
2022-08-29T07:18:39.252Z,77.62
2022-08-29T07:21:45.367Z,77.79
2022-08-29T07:24:51.557Z,77.78
2022-08-29T07:27:57.717Z,77.89
2022-08-29T07:31:03.947Z,77.71
2022-08-29T07:34:10.222Z,77.58
2022-08-29T07:37:16.371Z,77.58
2022-08-29T07:40:23.058Z,77.63
2022-08-29T07:43:29.646Z,77.85
2022-08-29T07:46:35.919Z,77.51
2022-08-29T07:49:42.209Z,77.62
2022-08-29T07:52:48.726Z,77.55
2022-08-29T07:55:54.885Z,77.73
2022-08-29T07:59:02.075Z,77.81
2022-08-29T08:02:08.374Z,77.75
2022-08-29T08:05:14.734Z,77.76
2022-08-29T08:08:21.141Z,77.71
2022-08-29T08:11:28.433Z,77.92
2022-08-29T08:14:35.378Z,77.79
2022-08-29T08:17:44.104Z,77.48
2022-08-29T08:20:50.661Z,77.50
2022-08-29T08:23:57.118Z,77.63
2022-08-29T08:27:03.592Z,77.32
2022-08-29T08:30:11.856Z,77.36
2022-08-29T08:33:17.907Z,77.51
2022-08-29T08:36:26.874Z,77.32
2022-08-29T08:39:33.086Z,77.07
2022-08-29T08:42:43.435Z,76.94
2022-08-29T08:45:50.056Z,76.85
2022-08-29T08:48:58.424Z,76.97
2022-08-29T08:52:07.875Z,76.62
2022-08-29T08:55:24.051Z,76.27
2022-08-29T08:58:35.637Z,76.25
2022-08-29T09:01:45.433Z,76.25
2022-08-29T09:05:01.394Z,76.34
2022-08-29T09:08:15.270Z,76.00
2022-08-29T09:11:30.142Z,75.50
2022-08-29T09:14:59.988Z,75.37
2022-08-29T09:18:13.536Z,74.96
2022-08-29T09:21:40.634Z,74.51
2022-08-29T09:24:51.239Z,74.15
2022-08-29T09:27:58.339Z,73.97
2022-08-29T09:31:26.519Z,73.76
2022-08-29T09:35:04.856Z,73.58
2022-08-29T09:38:08.083Z,73.01
2022-08-29T09:41:28.221Z,72.75
2022-08-29T09:44:38.734Z,72.77
2022-08-29T09:47:45.469Z,72.63
2022-08-29T09:50:51.643Z,72.55
2022-08-29T09:54:15.169Z,72.49
2022-08-29T09:57:27.670Z,71.36
2022-08-29T10:00:38.174Z,71.24
2022-08-29T10:03:55.253Z,71.18
2022-08-29T10:07:12.122Z,71.00
2022-08-29T10:10:21.827Z,70.80
2022-08-29T10:13:34.307Z,70.67
2022-08-29T10:16:52.986Z,70.58
2022-08-29T10:19:59.819Z,70.15
2022-08-29T10:23:10.940Z,69.86
2022-08-29T10:26:27.653Z,69.72
2022-08-29T10:29:58.229Z,68.97
2022-08-29T10:33:21.403Z,68.60
2022-08-29T10:36:33.966Z,68.51
2022-08-29T10:39:47.443Z,68.23
2022-08-29T10:42:59.585Z,67.64
2022-08-29T10:46:18.957Z,67.61
2022-08-29T10:49:35.804Z,67.31
2022-08-29T10:52:53.370Z,67.41
2022-08-29T10:56:06.665Z,66.65
2022-08-29T10:59:21.564Z,66.18
2022-08-29T11:02:32.436Z,65.84
2022-08-29T11:05:44.512Z,65.78
2022-08-29T11:08:57.694Z,65.21
2022-08-29T11:12:17.359Z,65.15
2022-08-29T11:15:28.531Z,64.77
2022-08-29T11:18:41.124Z,64.60
2022-08-29T11:21:52.770Z,64.41
2022-08-29T11:25:09.389Z,64.11
2022-08-29T11:28:23.803Z,64.06
2022-08-29T11:31:50.082Z,63.62
2022-08-29T11:35:10.003Z,63.55
2022-08-29T11:38:40.643Z,63.73
2022-08-29T11:41:50.048Z,63.29
2022-08-29T11:44:59.774Z,62.87
2022-08-29T11:48:21.983Z,62.75
2022-08-29T11:51:36.165Z,62.58
2022-08-29T11:55:28.681Z,62.49
2022-08-29T11:58:50.487Z,62.18
2022-08-29T12:02:02.241Z,62.38
2022-08-29T12:05:11.025Z,62.35
2022-08-29T12:08:36.833Z,62.15
2022-08-29T12:12:21.431Z,61.53
2022-08-29T12:15:59.744Z,61.24
2022-08-29T12:19:06.160Z,61.17
2022-08-29T12:22:22.243Z,61.12
2022-08-29T12:29:22.151Z,60.77
2022-08-29T12:32:44.344Z,60.82
2022-08-29T12:36:12.657Z,60.66
2022-08-29T12:39:33.261Z,60.23
2022-08-29T12:42:49.563Z,59.63
2022-08-29T12:45:59.111Z,59.54
2022-08-29T12:49:16.379Z,59.51
2022-08-29T12:52:29.585Z,59.34
2022-08-29T12:55:40.853Z,59.11
2022-08-29T12:58:55.711Z,58.81
2022-08-29T13:02:03.099Z,58.77
2022-08-29T13:05:26.904Z,58.76
2022-08-29T13:08:38.269Z,58.61
2022-08-29T13:11:44.406Z,58.63
2022-08-29T13:14:56.394Z,58.64
2022-08-29T13:18:03.234Z,58.12
2022-08-29T13:21:14.894Z,57.96
2022-08-29T13:24:22.180Z,57.88
2022-08-29T13:27:28.413Z,57.47
2022-08-29T13:30:34.538Z,57.71
2022-08-29T13:34:01.119Z,57.63
2022-08-29T13:37:28.657Z,57.60
2022-08-29T13:40:44.101Z,57.36
2022-08-29T13:43:51.584Z,56.96
2022-08-29T13:47:01.508Z,56.91
2022-08-29T13:50:11.534Z,56.85
2022-08-29T13:53:17.895Z,56.53
2022-08-29T13:56:32.284Z,56.77
2022-08-29T13:59:40.035Z,56.83
2022-08-29T14:02:46.354Z,56.73
2022-08-29T14:05:56.655Z,56.52
2022-08-29T14:09:03.290Z,56.28
2022-08-29T14:12:11.093Z,55.94
2022-08-29T14:15:18.923Z,55.90
2022-08-29T14:18:25.055Z,55.99
2022-08-29T14:21:31.230Z,55.76
2022-08-29T14:24:37.831Z,55.74
2022-08-29T14:27:44.792Z,55.63
2022-08-29T14:30:51.846Z,55.55
2022-08-29T14:33:58.118Z,55.40
2022-08-29T14:37:04.955Z,55.30
2022-08-29T14:40:12.340Z,55.42
2022-08-29T14:43:18.617Z,55.46
2022-08-29T14:46:24.642Z,55.39
2022-08-29T14:49:30.794Z,55.27
2022-08-29T14:52:37.255Z,55.34
2022-08-29T14:55:44.059Z,55.41
2022-08-29T14:58:50.259Z,55.17
2022-08-29T15:01:56.521Z,55.40
2022-08-29T15:05:02.740Z,55.07
2022-08-29T15:08:10.462Z,55.29
2022-08-29T15:11:21.791Z,55.03
2022-08-29T15:14:27.935Z,54.96
2022-08-29T15:17:34.319Z,55.19
2022-08-29T15:20:43.746Z,54.90
2022-08-29T15:23:52.570Z,54.82
2022-08-29T15:26:59.520Z,55.04
2022-08-29T15:30:06.473Z,54.89
2022-08-29T15:33:12.605Z,54.87
2022-08-29T15:36:18.787Z,54.72
2022-08-29T15:39:25.578Z,55.03
2022-08-29T15:42:34.296Z,55.02
2022-08-29T15:45:40.565Z,54.72
2022-08-29T15:48:47.662Z,54.68
2022-08-29T15:51:54.161Z,54.99
2022-08-29T15:55:00.361Z,55.00
2022-08-29T15:58:06.503Z,54.86
2022-08-29T16:01:12.834Z,54.76
2022-08-29T16:04:21.647Z,54.73
2022-08-29T16:07:29.038Z,54.75
2022-08-29T16:10:36.511Z,55.06
2022-08-29T16:13:42.685Z,55.08
2022-08-29T16:16:49.503Z,55.17
2022-08-29T16:19:55.662Z,55.35
2022-08-29T16:23:02.411Z,55.11
2022-08-29T16:26:08.773Z,55.09
2022-08-29T16:29:14.981Z,55.46
2022-08-29T16:32:27.162Z,55.47
2022-08-29T16:35:33.253Z,55.31
2022-08-29T16:38:40.306Z,55.53
2022-08-29T16:41:47.161Z,55.54
2022-08-29T16:44:53.487Z,55.67
2022-08-29T16:47:59.925Z,55.93
2022-08-29T16:51:06.214Z,56.07
2022-08-29T16:54:12.872Z,56.18
2022-08-29T16:57:18.910Z,56.13
2022-08-29T17:00:25.526Z,56.28
2022-08-29T17:03:31.716Z,56.28
2022-08-29T17:06:38.738Z,56.25
2022-08-29T17:09:43.705Z,56.67
2022-08-29T17:12:48.660Z,56.60
2022-08-29T17:15:53.570Z,56.76
2022-08-29T17:19:00.079Z,56.86
2022-08-29T17:22:08.293Z,56.97
2022-08-29T17:25:14.623Z,57.08
2022-08-29T17:28:21.260Z,57.14
2022-08-29T17:31:27.427Z,57.41
2022-08-29T17:34:33.646Z,57.70
2022-08-29T17:37:40.378Z,57.87
2022-08-29T17:40:46.719Z,58.12
2022-08-29T17:43:54.321Z,58.36
2022-08-29T17:47:00.402Z,58.51
2022-08-29T17:50:07.832Z,58.63
2022-08-29T17:53:14.287Z,59.06
2022-08-29T17:56:22.553Z,59.08
2022-08-29T17:59:33.901Z,59.38
2022-08-29T18:02:40.385Z,59.51
2022-08-29T18:05:46.667Z,59.63
2022-08-29T18:08:52.846Z,59.86
2022-08-29T18:11:59.654Z,59.93
2022-08-29T18:15:07.450Z,60.13
2022-08-29T18:18:13.722Z,60.32
2022-08-29T18:21:20.222Z,60.50
2022-08-29T18:24:26.439Z,60.66
2022-08-29T18:27:33.552Z,60.86
2022-08-29T18:30:39.950Z,60.90
2022-08-29T18:34:00.226Z,61.10
2022-08-29T18:37:07.551Z,61.27
2022-08-29T18:40:14.802Z,61.48
2022-08-29T18:43:21.578Z,61.63
2022-08-29T18:46:27.939Z,61.68
2022-08-29T18:49:51.628Z,61.92
2022-08-29T18:52:57.979Z,62.02
2022-08-29T18:56:05.341Z,62.13
2022-08-29T18:59:12.334Z,62.14
2022-08-29T19:02:18.548Z,62.33
2022-08-29T19:05:26.441Z,62.43
2022-08-29T19:08:32.526Z,62.60
2022-08-29T19:11:38.686Z,62.82
2022-08-29T19:15:00.870Z,62.86
2022-08-29T19:18:08.913Z,63.11
2022-08-29T19:21:15.246Z,63.19
2022-08-29T19:24:21.519Z,63.22
2022-08-29T19:27:42.697Z,63.28
2022-08-29T19:30:50.832Z,63.53
2022-08-29T19:33:57.249Z,63.54
2022-08-29T19:37:05.406Z,63.75
2022-08-29T19:40:18.279Z,63.92
2022-08-29T19:43:25.506Z,64.11
2022-08-29T19:46:32.498Z,64.34
2022-08-29T19:49:43.412Z,64.58
2022-08-29T19:52:52.195Z,64.64
2022-08-29T19:55:58.914Z,64.81
2022-08-29T19:59:06.856Z,64.70
2022-08-29T20:02:13.838Z,64.94
2022-08-29T20:05:20.582Z,64.97
2022-08-29T20:08:29.246Z,64.99
2022-08-29T20:11:43.945Z,65.12
2022-08-29T20:14:52.746Z,65.11
2022-08-29T20:17:59.843Z,65.26
2022-08-29T20:21:06.342Z,65.23
2022-08-29T20:24:15.582Z,65.48
2022-08-29T20:27:22.810Z,65.52
2022-08-29T20:30:31.734Z,65.61
2022-08-29T20:33:41.296Z,65.72
2022-08-29T20:37:05.405Z,65.69
2022-08-29T20:40:13.626Z,65.96
2022-08-29T20:43:20.627Z,66.01
2022-08-29T20:46:28.550Z,65.98
2022-08-29T20:49:35.546Z,66.04
2022-08-29T20:52:41.714Z,66.18
2022-08-29T20:55:47.898Z,66.30
2022-08-29T20:58:54.026Z,66.25
2022-08-29T21:02:00.897Z,66.51
2022-08-29T21:05:25.773Z,66.53
2022-08-29T21:08:33.932Z,66.56
2022-08-29T21:11:40.163Z,66.62
2022-08-29T21:14:46.875Z,66.71
2022-08-29T21:17:53.081Z,66.72
2022-08-29T21:20:59.249Z,66.81
2022-08-29T21:24:07.308Z,66.92
2022-08-29T21:27:13.449Z,67.02
2022-08-29T21:30:19.987Z,66.96
2022-08-29T21:33:26.295Z,66.88
2022-08-29T21:36:32.531Z,66.92
2022-08-29T21:39:38.679Z,67.13
2022-08-29T21:42:44.842Z,67.18
2022-08-29T21:45:51.606Z,67.15
2022-08-29T21:49:01.061Z,67.03
2022-08-29T21:52:07.495Z,67.13
2022-08-29T21:55:14.086Z,67.34
2022-08-29T21:58:20.639Z,67.24
2022-08-29T22:01:30.070Z,67.32
2022-08-29T22:04:36.243Z,67.36
2022-08-29T22:07:43.060Z,67.36
2022-08-29T22:10:49.550Z,67.40
2022-08-29T22:13:56.911Z,67.53
2022-08-29T22:17:03.592Z,67.62
2022-08-29T22:20:08.974Z,67.49
2022-08-29T22:23:19.848Z,67.62
2022-08-29T22:26:26.911Z,67.63
2022-08-29T22:29:33.624Z,67.64
2022-08-29T22:32:40.059Z,67.70
2022-08-29T22:35:46.796Z,67.85
2022-08-29T22:38:55.400Z,67.90
2022-08-29T22:42:03.100Z,67.93
2022-08-29T22:45:12.158Z,67.82
2022-08-29T22:48:19.514Z,67.96
2022-08-29T22:51:27.839Z,67.89
2022-08-29T22:54:36.970Z,68.04
2022-08-29T22:57:45.479Z,67.99
2022-08-29T23:00:51.642Z,67.98
2022-08-29T23:03:59.305Z,68.14
2022-08-29T23:07:05.758Z,68.07
2022-08-29T23:10:14.264Z,68.10
2022-08-29T23:13:20.479Z,68.11
2022-08-29T23:16:27.706Z,68.34
2022-08-29T23:19:34.127Z,68.46
2022-08-29T23:22:42.951Z,68.69
2022-08-29T23:25:49.442Z,68.78
2022-08-29T23:28:56.190Z,68.82
2022-08-29T23:32:02.222Z,69.02
2022-08-29T23:35:07.691Z,68.97
2022-08-29T23:38:13.853Z,69.05
2022-08-29T23:41:22.145Z,68.97
2022-08-29T23:44:28.342Z,68.97
2022-08-29T23:47:35.439Z,69.07
2022-08-29T23:50:41.655Z,69.17
2022-08-29T23:53:53.599Z,69.11
2022-08-29T23:56:59.999Z,69.36
